createdAt,value
2018-10-05T00:01:00.711Z,47.60
2018-10-05T00:03:29.966Z,46.40
2018-10-05T00:05:59.380Z,49.00
2018-10-05T00:08:28.621Z,48.17
2018-10-05T00:10:57.865Z,48.50
2018-10-05T00:13:27.120Z,49.43
2018-10-05T00:15:56.507Z,45.63
2018-10-05T00:18:25.789Z,45.47
2018-10-05T00:20:55.600Z,48.80
2018-10-05T00:23:24.841Z,46.00
2018-10-05T00:25:54.147Z,46.73
2018-10-05T00:28:23.391Z,45.07
2018-10-05T00:30:53.188Z,44.13
2018-10-05T00:33:22.535Z,44.67
2018-10-05T00:35:51.936Z,44.03
2018-10-05T00:38:21.167Z,42.43
2018-10-05T00:40:54.772Z,42.00
2018-10-05T00:43:24.210Z,40.30
2018-10-05T00:45:53.558Z,40.73
2018-10-05T00:48:22.809Z,38.33
2018-10-05T00:50:52.269Z,40.13
2018-10-05T00:53:21.519Z,39.83
2018-10-05T00:55:51.309Z,38.37
2018-10-05T00:58:20.647Z,37.47
2018-10-05T01:00:57.000Z,39.03
2018-10-05T01:03:26.951Z,36.37
2018-10-05T01:05:56.239Z,36.20
2018-10-05T01:08:26.097Z,36.63
2018-10-05T01:10:55.455Z,36.10
2018-10-05T01:13:24.773Z,35.37
2018-10-05T01:15:54.215Z,34.07
2018-10-05T01:18:24.081Z,35.03
2018-10-05T01:20:53.387Z,34.60
2018-10-05T01:23:23.223Z,33.00
2018-10-05T01:25:52.458Z,33.60
2018-10-05T01:28:21.876Z,33.33
2018-10-05T01:30:51.205Z,34.33
2018-10-05T01:33:20.513Z,33.43
2018-10-05T01:35:51.390Z,32.63
2018-10-05T01:38:21.510Z,32.27
2018-10-05T01:40:51.715Z,31.67
2018-10-05T01:43:21.090Z,32.50
2018-10-05T01:45:50.397Z,31.37
2018-10-05T01:48:19.612Z,31.17
2018-10-05T01:50:48.855Z,31.47
2018-10-05T01:53:18.303Z,31.30
2018-10-05T01:55:47.560Z,32.53
2018-10-05T01:58:16.782Z,30.77
2018-10-05T02:00:46.053Z,30.17
2018-10-05T02:03:15.655Z,31.10
2018-10-05T02:05:44.928Z,32.00
2018-10-05T02:08:14.185Z,30.17
2018-10-05T02:10:43.567Z,32.27
2018-10-05T02:13:13.024Z,31.70
2018-10-05T02:15:42.370Z,31.97
2018-10-05T02:18:11.861Z,30.23
2018-10-05T02:20:41.081Z,29.70
2018-10-05T02:23:10.408Z,30.03
2018-10-05T02:25:39.696Z,32.00
2018-10-05T02:28:09.692Z,29.23
2018-10-05T02:30:38.936Z,30.80
2018-10-05T02:33:08.319Z,29.27
2018-10-05T02:35:37.543Z,32.60
2018-10-05T02:38:07.036Z,30.77
2018-10-05T02:40:36.433Z,31.20
2018-10-05T02:43:06.249Z,30.40
2018-10-05T02:45:35.479Z,31.30
2018-10-05T02:48:05.872Z,29.13
2018-10-05T02:50:35.273Z,30.40
2018-10-05T02:53:04.773Z,29.20
2018-10-05T02:55:34.192Z,31.07
2018-10-05T02:58:03.403Z,31.07
2018-10-05T03:00:43.862Z,31.27
2018-10-05T03:03:13.147Z,30.27
2018-10-05T03:05:42.371Z,31.50
2018-10-05T03:08:11.917Z,31.73
2018-10-05T03:10:41.149Z,30.00
2018-10-05T03:13:10.377Z,29.63
2018-10-05T03:15:39.639Z,30.53
2018-10-05T03:18:08.910Z,32.37
2018-10-05T03:20:38.309Z,31.90
2018-10-05T03:23:07.549Z,30.63
2018-10-05T03:25:36.999Z,31.87
2018-10-05T03:28:06.401Z,32.87
2018-10-05T03:30:36.383Z,33.50
2018-10-05T03:33:05.643Z,32.93
2018-10-05T03:35:35.587Z,33.03
2018-10-05T03:38:05.604Z,33.47
2018-10-05T03:40:34.922Z,33.70
2018-10-05T03:43:04.281Z,34.13
2018-10-05T03:45:33.604Z,33.80
2018-10-05T03:48:02.931Z,35.43
2018-10-05T03:50:32.324Z,32.63
2018-10-05T03:53:01.536Z,34.90
2018-10-05T03:55:31.016Z,32.53
2018-10-05T03:58:00.413Z,33.70
2018-10-05T04:00:29.719Z,35.83
2018-10-05T04:02:59.007Z,32.63
2018-10-05T04:05:28.377Z,32.57
2018-10-05T04:07:58.267Z,33.20
2018-10-05T04:10:27.519Z,32.73
2018-10-05T04:12:56.736Z,33.27
2018-10-05T04:15:26.599Z,33.17
2018-10-05T04:17:55.918Z,33.67
2018-10-05T04:20:25.246Z,32.90
2018-10-05T04:22:54.548Z,33.17
2018-10-05T04:25:23.779Z,33.20
2018-10-05T04:27:52.985Z,33.27
2018-10-05T04:30:22.225Z,32.47
2018-10-05T04:32:51.433Z,33.13
2018-10-05T04:35:20.664Z,33.67
2018-10-05T04:37:49.878Z,33.80
2018-10-05T04:40:19.161Z,33.93
2018-10-05T04:42:48.373Z,33.77
2018-10-05T04:45:17.764Z,32.70
2018-10-05T04:47:47.755Z,32.53
2018-10-05T04:50:17.119Z,33.70
2018-10-05T04:52:46.596Z,32.63
2018-10-05T04:55:15.899Z,33.30
2018-10-05T04:57:45.176Z,32.63
2018-10-05T05:00:14.506Z,34.17
2018-10-05T05:02:44.519Z,33.30
2018-10-05T05:05:14.397Z,32.17
2018-10-05T05:07:43.696Z,32.37
2018-10-05T05:10:12.949Z,32.63
2018-10-05T05:12:42.304Z,33.63
2018-10-05T05:15:12.205Z,34.23
2018-10-05T05:17:41.423Z,33.70
2018-10-05T05:20:10.640Z,33.80
2018-10-05T05:22:39.928Z,34.77
2018-10-05T05:25:09.788Z,33.53
2018-10-05T05:27:39.020Z,34.80
2018-10-05T05:30:08.709Z,33.63
2018-10-05T05:32:38.252Z,33.43
2018-10-05T05:35:07.660Z,32.57
2018-10-05T05:37:36.968Z,32.93
2018-10-05T05:40:08.058Z,32.60
2018-10-05T05:42:37.400Z,34.33
2018-10-05T05:45:06.672Z,32.53
2018-10-05T05:47:35.900Z,31.33
2018-10-05T05:50:05.405Z,33.30
2018-10-05T05:52:34.641Z,32.37
2018-10-05T05:55:03.901Z,33.23
2018-10-05T05:57:33.532Z,31.83
2018-10-05T06:00:02.928Z,33.67
2018-10-05T06:02:32.148Z,32.33
2018-10-05T06:05:01.419Z,31.53
2018-10-05T06:07:30.636Z,30.17
2018-10-05T06:09:59.899Z,31.23
2018-10-05T06:12:29.115Z,30.57
2018-10-05T06:14:58.354Z,30.10
2018-10-05T06:17:27.670Z,29.87
2018-10-05T06:19:56.911Z,29.93
2018-10-05T06:22:26.668Z,30.60
2018-10-05T06:24:56.380Z,28.93
2018-10-05T06:27:25.665Z,29.40
2018-10-05T06:29:54.943Z,29.03
2018-10-05T06:32:24.189Z,28.30
2018-10-05T06:34:53.548Z,28.17
2018-10-05T06:37:26.773Z,28.27
2018-10-05T06:39:56.307Z,28.30
2018-10-05T06:42:25.873Z,26.60
2018-10-05T06:44:55.044Z,27.13
2018-10-05T06:47:24.612Z,27.07
2018-10-05T06:49:53.848Z,25.93
2018-10-05T06:52:23.264Z,25.77
2018-10-05T06:54:52.516Z,25.00
2018-10-05T06:57:21.744Z,25.70
2018-10-05T06:59:51.577Z,25.13
2018-10-05T07:02:20.805Z,23.80
2018-10-05T07:04:50.054Z,22.80
2018-10-05T07:07:19.349Z,23.37
2018-10-05T07:09:48.653Z,23.57
2018-10-05T07:12:18.093Z,22.70
2018-10-05T07:14:47.623Z,23.70
2018-10-05T07:17:17.189Z,23.03
2018-10-05T07:19:46.563Z,22.43
2018-10-05T07:22:16.006Z,23.50
2018-10-05T07:24:45.276Z,21.77
2018-10-05T07:27:14.612Z,22.67
2018-10-05T07:29:44.440Z,21.57
2018-10-05T07:32:13.833Z,21.30
2018-10-05T07:34:43.122Z,21.57
2018-10-05T07:37:12.367Z,21.43
2018-10-05T07:39:41.576Z,21.80
2018-10-05T07:42:10.800Z,20.77
2018-10-05T07:44:40.028Z,21.17
2018-10-05T07:47:09.241Z,19.83
2018-10-05T07:49:38.475Z,19.03
2018-10-05T07:52:07.779Z,20.20
2018-10-05T07:54:36.979Z,19.90
2018-10-05T07:57:06.497Z,18.37
2018-10-05T07:59:35.705Z,18.53
2018-10-05T08:02:05.500Z,18.80
2018-10-05T08:04:34.904Z,17.70
2018-10-05T08:07:04.212Z,16.80
2018-10-05T08:09:33.506Z,16.53
2018-10-05T08:12:02.784Z,16.43
2018-10-05T08:14:31.987Z,16.13
2018-10-05T08:17:01.324Z,14.67
2018-10-05T08:19:30.715Z,13.93
2018-10-05T08:21:59.972Z,13.67
2018-10-05T08:24:29.192Z,12.97
2018-10-05T08:26:58.791Z,13.27
2018-10-05T08:29:28.005Z,13.30
2018-10-05T08:31:57.437Z,14.33
2018-10-05T08:34:26.991Z,13.07
2018-10-05T08:36:56.239Z,14.03
2018-10-05T08:39:25.496Z,13.20
2018-10-05T08:41:55.300Z,13.70
2018-10-05T08:44:24.528Z,13.27
2018-10-05T08:46:53.760Z,12.33
2018-10-05T08:49:24.056Z,12.30
2018-10-05T08:51:53.417Z,13.07
2018-10-05T08:54:22.711Z,13.07
2018-10-05T08:56:51.980Z,13.37
2018-10-05T08:59:21.201Z,13.00
2018-10-05T09:01:50.449Z,12.60
2018-10-05T09:04:19.720Z,11.93
2018-10-05T09:06:48.933Z,12.17
2018-10-05T09:09:18.148Z,12.47
2018-10-05T09:11:47.378Z,12.33
2018-10-05T09:14:16.752Z,12.70
2018-10-05T09:16:46.104Z,12.15
2018-10-05T09:19:15.688Z,11.73
2018-10-05T09:21:44.920Z,12.43
2018-10-05T09:24:14.252Z,11.73
2018-10-05T09:26:43.992Z,11.65
2018-10-05T09:29:14.137Z,11.57
2018-10-05T09:31:43.417Z,11.90
2018-10-05T09:34:12.744Z,11.90
2018-10-05T09:36:42.013Z,11.35
2018-10-05T09:39:11.233Z,11.90
2018-10-05T09:41:40.512Z,11.93
2018-10-05T09:44:10.025Z,11.57
2018-10-05T09:46:39.274Z,11.28
2018-10-05T09:49:09.220Z,11.63
2018-10-05T09:51:38.717Z,11.40
2018-10-05T09:54:07.949Z,11.40
2018-10-05T09:56:37.212Z,12.25
2018-10-05T09:59:06.525Z,11.57
2018-10-05T10:01:41.027Z,11.20
2018-10-05T10:04:11.593Z,10.90
2018-10-05T10:06:41.303Z,10.80
2018-10-05T10:09:10.668Z,9.95
2018-10-05T10:11:39.892Z,9.73
2018-10-05T10:14:09.284Z,10.60
2018-10-05T10:16:38.511Z,10.40
2018-10-05T10:19:07.814Z,9.28
2018-10-05T10:21:37.258Z,9.28
2018-10-05T10:24:06.560Z,8.55
2018-10-05T10:26:35.812Z,8.88
2018-10-05T10:29:05.259Z,8.00
2018-10-05T10:31:35.101Z,8.15
2018-10-05T10:34:04.334Z,7.87
2018-10-05T10:36:33.558Z,7.50
2018-10-05T10:39:02.863Z,7.15
2018-10-05T10:41:32.303Z,7.20
2018-10-05T10:44:02.608Z,6.60
2018-10-05T10:46:31.828Z,7.12
2018-10-05T10:49:01.163Z,6.35
2018-10-05T10:51:31.325Z,5.85
2018-10-05T10:54:00.589Z,7.05
2018-10-05T10:56:30.480Z,6.22
2018-10-05T10:58:59.758Z,6.10
2018-10-05T11:01:29.757Z,5.55
2018-10-05T11:03:59.107Z,4.85
2018-10-05T11:06:28.529Z,5.37
2018-10-05T11:08:57.783Z,5.65
2018-10-05T11:11:27.115Z,5.00
2018-10-05T11:13:56.879Z,4.72
2018-10-05T11:16:26.234Z,5.00
2018-10-05T11:18:55.637Z,4.90
2018-10-05T11:21:24.864Z,4.83
2018-10-05T11:23:54.338Z,4.45
2018-10-05T11:26:23.717Z,4.92
2018-10-05T11:28:53.313Z,4.85
2018-10-05T11:31:22.635Z,4.67
2018-10-05T11:33:52.144Z,5.30
2018-10-05T11:36:21.401Z,5.33
2018-10-05T11:38:50.602Z,5.10
2018-10-05T11:41:20.045Z,5.03
2018-10-05T11:43:49.393Z,5.20
2018-10-05T11:46:18.741Z,4.35
2018-10-05T11:48:47.929Z,4.97
2018-10-05T11:51:17.166Z,4.78
2018-10-05T11:53:46.367Z,4.28
2018-10-05T11:56:15.598Z,4.62
2018-10-05T11:58:44.804Z,4.75
2018-10-05T12:01:14.064Z,4.33
2018-10-05T12:03:43.277Z,4.92
2018-10-05T12:06:13.184Z,4.00
2018-10-05T12:08:42.407Z,4.47
2018-10-05T12:11:11.661Z,4.42
2018-10-05T12:13:40.960Z,4.67
2018-10-05T12:16:10.765Z,6.62
2018-10-05T12:18:39.990Z,4.15
2018-10-05T12:21:09.416Z,3.90
2018-10-05T12:23:38.659Z,4.37
2018-10-05T12:26:08.428Z,4.85
2018-10-05T12:28:38.361Z,4.97
2018-10-05T12:31:07.653Z,4.33
2018-10-05T12:33:37.791Z,4.20
2018-10-05T12:36:07.126Z,4.10
2018-10-05T12:38:36.557Z,4.45
2018-10-05T12:41:06.108Z,4.42
2018-10-05T12:43:39.711Z,4.20
2018-10-05T12:46:08.925Z,4.65
2018-10-05T12:48:38.513Z,4.40
2018-10-05T12:51:07.879Z,4.40
2018-10-05T12:53:37.140Z,3.67
2018-10-05T12:56:06.499Z,3.98
2018-10-05T12:58:35.710Z,4.67
2018-10-05T13:01:05.976Z,4.47
2018-10-05T13:03:35.769Z,4.57
2018-10-05T13:06:05.200Z,4.10
2018-10-05T13:08:34.521Z,4.20
2018-10-05T13:11:03.805Z,4.07
2018-10-05T13:13:33.176Z,4.07
2018-10-05T13:16:02.452Z,4.23
2018-10-05T13:18:31.664Z,4.00
2018-10-05T13:21:00.890Z,4.53
2018-10-05T13:23:30.362Z,4.27
2018-10-05T13:25:59.905Z,4.00
2018-10-05T13:28:30.031Z,4.40
2018-10-05T13:30:59.323Z,4.07
2018-10-05T13:33:28.563Z,4.13
2018-10-05T13:35:57.780Z,4.30
2018-10-05T13:38:27.056Z,4.00
2018-10-05T13:40:56.373Z,4.90
2018-10-05T13:43:25.736Z,4.87
2018-10-05T13:45:55.035Z,5.00
2018-10-05T13:48:24.361Z,5.00
2018-10-05T13:50:53.777Z,4.63
2018-10-05T13:53:22.973Z,4.60
2018-10-05T13:55:52.183Z,4.60
2018-10-05T13:58:21.447Z,4.47
2018-10-05T14:00:50.724Z,4.73
2018-10-05T14:03:20.056Z,4.70
2018-10-05T14:05:49.378Z,4.37
2018-10-05T14:08:18.626Z,5.40
2018-10-05T14:10:48.008Z,4.87
2018-10-05T14:13:17.780Z,4.67
2018-10-05T14:15:47.049Z,4.07
2018-10-05T14:18:16.289Z,4.07
2018-10-05T14:20:45.546Z,4.23
2018-10-05T14:23:15.513Z,3.93
2018-10-05T14:25:44.775Z,4.10
2018-10-05T14:28:14.089Z,3.90
2018-10-05T14:30:43.552Z,4.13
2018-10-05T14:33:12.968Z,4.33
2018-10-05T14:35:42.289Z,5.10
2018-10-05T14:38:11.932Z,4.27
2018-10-05T14:40:41.748Z,5.20
2018-10-05T14:43:11.050Z,4.80
2018-10-05T14:45:40.506Z,5.00
2018-10-05T14:48:10.606Z,5.00
2018-10-05T14:50:40.076Z,5.07
2018-10-05T14:53:09.467Z,5.10
2018-10-05T14:55:38.684Z,4.90
2018-10-05T14:58:08.759Z,5.00
2018-10-05T15:00:37.999Z,4.77
2018-10-05T15:03:07.302Z,4.93
2018-10-05T15:05:36.548Z,5.23
2018-10-05T15:08:05.995Z,4.80
2018-10-05T15:10:35.712Z,4.70
2018-10-05T15:13:05.043Z,5.03
2018-10-05T15:15:34.852Z,5.10
2018-10-05T15:18:04.251Z,5.10
2018-10-05T15:20:34.200Z,5.23
2018-10-05T15:23:03.446Z,5.17
2018-10-05T15:25:32.665Z,5.30
2018-10-05T15:28:01.948Z,7.27
2018-10-05T15:30:31.229Z,5.10
2018-10-05T15:33:00.649Z,4.80
2018-10-05T15:35:29.960Z,5.40
2018-10-05T15:37:59.191Z,4.57
2018-10-05T15:40:28.399Z,4.80
2018-10-05T15:42:57.629Z,5.20
2018-10-05T15:45:27.770Z,5.60
2018-10-05T15:47:57.814Z,5.83
2018-10-05T15:50:27.099Z,5.97
2018-10-05T15:52:56.493Z,6.33
2018-10-05T15:55:26.516Z,6.07
2018-10-05T15:57:56.451Z,6.80
2018-10-05T16:00:25.728Z,6.53
2018-10-05T16:02:55.274Z,6.90
2018-10-05T16:05:24.568Z,7.57
2018-10-05T16:07:53.755Z,6.47
2018-10-05T16:10:23.021Z,6.60
2018-10-05T16:12:52.269Z,6.97
2018-10-05T16:15:21.625Z,6.50
2018-10-05T16:17:50.993Z,6.77
2018-10-05T16:20:20.860Z,7.20
2018-10-05T16:22:50.238Z,6.93
2018-10-05T16:25:19.469Z,7.00
2018-10-05T16:27:48.762Z,7.27
2018-10-05T16:30:18.584Z,7.73
2018-10-05T16:32:48.416Z,15.47
2018-10-05T16:35:17.665Z,23.83
2018-10-05T16:37:46.981Z,14.53
2018-10-05T16:40:16.294Z,9.23
2018-10-05T16:42:45.580Z,7.53
2018-10-05T16:45:14.911Z,7.30
2018-10-05T16:47:44.192Z,7.17
2018-10-05T16:50:13.492Z,7.03
2018-10-05T16:52:42.705Z,8.20
2018-10-05T16:55:11.936Z,8.00
2018-10-05T16:57:41.274Z,8.27
2018-10-05T17:00:11.250Z,8.10
2018-10-05T17:02:40.541Z,8.23
2018-10-05T17:05:09.756Z,7.57
2018-10-05T17:07:39.004Z,8.10
2018-10-05T17:10:08.282Z,7.97
2018-10-05T17:12:37.584Z,8.57
2018-10-05T17:15:07.165Z,8.13
2018-10-05T17:17:36.449Z,9.07
2018-10-05T17:20:05.738Z,9.93
2018-10-05T17:22:35.161Z,9.57
2018-10-05T17:25:04.682Z,10.13
2018-10-05T17:27:34.623Z,10.10
2018-10-05T17:30:04.307Z,10.17
2018-10-05T17:32:33.708Z,10.87
2018-10-05T17:35:02.960Z,11.77
2018-10-05T17:37:32.207Z,11.23
2018-10-05T17:40:01.447Z,10.73
2018-10-05T17:42:31.256Z,10.53
2018-10-05T17:45:00.830Z,12.23
2018-10-05T17:47:30.459Z,11.57
2018-10-05T17:49:59.663Z,12.40
2018-10-05T17:52:28.945Z,13.13
2018-10-05T17:54:59.891Z,13.90
2018-10-05T17:57:29.242Z,13.63
2018-10-05T17:59:58.480Z,13.00
2018-10-05T18:02:27.703Z,13.80
2018-10-05T18:04:56.950Z,12.40
2018-10-05T18:07:26.193Z,13.20
2018-10-05T18:09:55.405Z,12.70
2018-10-05T18:12:24.717Z,12.63
2018-10-05T18:14:54.125Z,13.17
2018-10-05T18:17:23.309Z,14.17
2018-10-05T18:19:52.598Z,12.77
2018-10-05T18:22:23.056Z,12.33
2018-10-05T18:24:53.281Z,12.73
2018-10-05T18:27:22.509Z,12.90
2018-10-05T18:29:51.757Z,12.73
2018-10-05T18:32:21.239Z,12.03
2018-10-05T18:34:50.616Z,12.20
2018-10-05T18:37:20.008Z,12.97
2018-10-05T18:39:49.363Z,15.63
2018-10-05T18:42:18.734Z,13.67
2018-10-05T18:44:48.058Z,13.53
2018-10-05T18:47:17.288Z,13.60
2018-10-05T18:49:46.659Z,13.97
2018-10-05T18:52:16.245Z,13.67
2018-10-05T18:54:45.578Z,13.87
2018-10-05T18:57:17.016Z,13.40
2018-10-05T18:59:46.277Z,14.40
2018-10-05T19:02:16.901Z,15.27
2018-10-05T19:04:46.958Z,14.07
2018-10-05T19:07:16.441Z,14.83
2018-10-05T19:09:45.743Z,14.33
2018-10-05T19:12:15.050Z,13.10
2018-10-05T19:14:44.713Z,12.17
2018-10-05T19:17:14.186Z,11.30
2018-10-05T19:19:44.271Z,13.20
2018-10-05T19:22:13.516Z,14.03
2018-10-05T19:24:42.736Z,14.10
2018-10-05T19:27:12.134Z,15.53
2018-10-05T19:29:41.368Z,17.70
2018-10-05T19:32:10.837Z,16.67
2018-10-05T19:34:40.109Z,17.83
2018-10-05T19:37:09.923Z,18.17
2018-10-05T19:39:39.135Z,17.33
2018-10-05T19:42:08.588Z,18.60
2018-10-05T19:44:37.756Z,18.73
2018-10-05T19:47:07.469Z,18.90
2018-10-05T19:49:37.418Z,19.97
2018-10-05T19:52:06.795Z,18.37
2018-10-05T19:54:36.007Z,19.43
2018-10-05T19:57:05.379Z,18.03
2018-10-05T19:59:34.835Z,19.77
2018-10-05T20:02:04.081Z,19.37
2018-10-05T20:04:33.285Z,18.77
2018-10-05T20:07:02.561Z,18.80
2018-10-05T20:09:32.644Z,17.83
2018-10-05T20:12:01.917Z,18.20
2018-10-05T20:14:31.196Z,18.07
2018-10-05T20:17:01.605Z,17.93
2018-10-05T20:19:30.827Z,19.07
2018-10-05T20:22:00.051Z,18.73
2018-10-05T20:24:29.337Z,18.77
2018-10-05T20:26:58.787Z,17.13
2018-10-05T20:29:28.038Z,17.33
2018-10-05T20:31:57.332Z,20.23
2018-10-05T20:34:26.583Z,18.60
2018-10-05T20:36:56.130Z,18.37
2018-10-05T20:39:25.223Z,18.17
2018-10-05T20:41:54.548Z,19.03
2018-10-05T20:44:23.847Z,18.83
2018-10-05T20:46:53.126Z,18.67
2018-10-05T20:49:22.352Z,20.00
2018-10-05T20:51:51.768Z,18.77
2018-10-05T20:54:21.061Z,19.10
2018-10-05T20:56:50.496Z,19.87
2018-10-05T20:59:19.727Z,19.30
2018-10-05T21:01:49.259Z,13.10
2018-10-05T21:04:18.604Z,11.83
2018-10-05T21:06:47.864Z,13.33
2018-10-05T21:09:17.036Z,13.80
2018-10-05T21:11:46.356Z,14.83
2018-10-05T21:14:15.665Z,14.67
2018-10-05T21:16:44.893Z,14.47
2018-10-05T21:19:14.639Z,16.77
2018-10-05T21:21:44.599Z,16.63
2018-10-05T21:24:13.905Z,16.33
2018-10-05T21:26:43.864Z,17.47
2018-10-05T21:29:13.835Z,21.73
2018-10-05T21:31:43.200Z,22.17
2018-10-05T21:34:12.490Z,23.67
2018-10-05T21:36:41.909Z,24.33
2018-10-05T21:39:12.093Z,23.53
2018-10-05T21:41:41.740Z,23.17
2018-10-05T21:44:11.805Z,22.30
2018-10-05T21:46:41.243Z,21.17
2018-10-05T21:49:10.654Z,21.97
2018-10-05T21:51:39.861Z,21.37
2018-10-05T21:54:09.226Z,20.93
2018-10-05T21:56:41.616Z,21.03
2018-10-05T21:59:10.865Z,19.40
2018-10-05T22:01:40.272Z,20.77
2018-10-05T22:04:09.520Z,19.93
2018-10-05T22:06:38.860Z,22.53
2018-10-05T22:09:10.272Z,22.17
2018-10-05T22:11:39.751Z,20.90
2018-10-05T22:14:09.001Z,22.40
2018-10-05T22:16:38.542Z,22.23
2018-10-05T22:19:08.446Z,23.13
2018-10-05T22:21:37.736Z,21.87
2018-10-05T22:24:07.177Z,22.87
2018-10-05T22:26:36.525Z,22.73
2018-10-05T22:29:05.736Z,23.73
2018-10-05T22:31:34.980Z,24.30
2018-10-05T22:34:04.220Z,22.57
2018-10-05T22:36:33.477Z,23.53
2018-10-05T22:39:02.774Z,24.13
2018-10-05T22:41:31.991Z,23.23
2018-10-05T22:44:01.338Z,23.87
2018-10-05T22:46:30.709Z,21.93
2018-10-05T22:49:00.540Z,22.77
2018-10-05T22:51:29.763Z,21.30
2018-10-05T22:53:59.116Z,21.83
2018-10-05T22:56:28.451Z,23.57
2018-10-05T22:58:58.363Z,20.83
2018-10-05T23:01:28.492Z,21.43
2018-10-05T23:03:57.721Z,21.47
2018-10-05T23:06:27.101Z,23.37
2018-10-05T23:08:56.398Z,23.03
2018-10-05T23:11:26.409Z,22.67
2018-10-05T23:13:56.541Z,23.73
2018-10-05T23:16:26.594Z,23.47
2018-10-05T23:18:55.936Z,24.53
2018-10-05T23:21:25.160Z,25.27
2018-10-05T23:23:54.459Z,24.40
2018-10-05T23:26:23.666Z,24.37
2018-10-05T23:28:52.936Z,25.40
2018-10-05T23:31:22.155Z,24.37
2018-10-05T23:33:52.155Z,24.70
2018-10-05T23:36:21.464Z,23.77
2018-10-05T23:38:50.762Z,23.83
2018-10-05T23:41:20.089Z,24.73
2018-10-05T23:43:49.423Z,23.37
2018-10-05T23:46:19.519Z,22.83
2018-10-05T23:48:48.780Z,23.97
2018-10-05T23:51:18.097Z,23.40
2018-10-05T23:53:47.388Z,24.50
2018-10-05T23:56:16.616Z,23.20
2018-10-05T23:58:46.913Z,22.80
